La Palma > ESTACION METEOROLÓGICA Salinas - Fuencaliente

DATOS ACTUALES Online

Ultima actulizacion 1 h 22 minutos

19.9 ºC

Temperatura

71

Humedad (%)

Presión (mb)

0

Precipitación (mm)

7.4 O

Viento (Km/h)

DATOS DIARIOS

Temperatura últimas 24 horas (ºC)

Humedad últimas 24 horas (%)

Presión atmosférica últimas 24 horas (mb)

Precipitaciones últimas 23 horas (mm)

Viento últimas 24 horas (Km/h)

Hora Temperatura (°C) ºC Precipitación (mm) mm Presión (mb) mb Humedad (%) % Viento (Km/h) km/h
19 - 11:00 18.7 0 0 79 7.8 O
19 - 12:00 19.9 0 0 75 7.6 O
19 - 13:00 20.3 0 0 72 8.9 SO
19 - 14:00 20.8 0 0 68 6.7 O
19 - 15:00 20.8 0 0 71 7.1 SO
19 - 16:00 20.7 0 0 73 8.5 SO
19 - 17:00 20.5 0 0 74 6.8 SO
19 - 18:00 20.2 0 0 74 5.8 SO
19 - 19:00 19.5 0 0 76 7 SO
19 - 20:00 19 0 0 78 6.5 SO
19 - 21:00 18.9 0 0 78 6 SO
19 - 22:00 19 0 0 77 5.7 SO
19 - 23:00 18.9 0 0 76 7.3 SO
20 - 00:00 18.9 0 0 79 6 SO
20 - 01:00 18.8 0 0 79 7.2 SO
20 - 02:00 18.9 0 0 80 6.5 SO
20 - 03:00 18.8 0 0 81 6.1 SO
20 - 04:00 19 0 0 78 6.7 SO
20 - 05:00 19.2 0 0 75 6.7 O
20 - 06:00 19.5 0 0 72 6.7 O
20 - 07:00 19.6 0 0 74 7.1 O
20 - 08:00 19.7 0 0 72 7.5 O
20 - 09:00 19.7 0 0 70 7.1 O
20 - 10:00 19.9 0 0 71 7.4 O
20 - 11:00
Apalmet utiliza cookies propias y de terceros para mejorar la usabilidad y la experiencia web. Política de cookies.